Time;durP1;ratioP1;P1;durP2;ratioP2;P2;SDS_P1;SDS_P2;PMS_P1;PMS_P2;Temp;Humidity;BMP_temperature;BMP_pressure;BME280_temperature;BME280_humidity;BME280_pressure;Samples;Min_cycle;Max_cycle;Signal;HPM_P1;HPM_P2
2022/08/02 00:01:41;;;;;;;;;;;;;;;-144.99;100.00;61100.13;5069570;28;19933;-66
2022/08/02 00:04:08;;;;;;;;;;;;;;;-144.99;100.00;61100.13;5064131;28;19932;-62
2022/08/02 00:06:35;;;;;;;;;;;;;;;-144.99;100.00;61100.13;5070573;28;20403;-66
2022/08/02 00:09:01;;;;;;;;;;;;;;;-144.99;100.00;61100.13;5071165;28;19932;-66
2022/08/02 00:11:28;;;;;;;;;;;;;;;-144.99;100.00;61100.13;5069863;28;20047;-67
2022/08/02 00:13:54;;;;;;;;;;;;;;;-144.99;100.00;61100.13;5068727;28;19933;-67
2022/08/02 00:16:22;;;;;;;;;;;;;;;-144.99;100.00;61100.13;5070850;28;19932;-66
2022/08/02 00:18:48;;;;;;;;;;;;;;;-144.99;100.00;61100.13;5071374;28;19924;-67
2022/08/02 00:21:15;;;;;;;;;;;;;;;-144.99;100.00;61100.13;5070045;28;19951;-68
2022/08/02 00:23:41;;;;;;;;;;;;;;;-144.99;100.00;61100.13;5070835;28;20004;-67
2022/08/02 00:26:08;;;;;;;;;;;;;;;-144.99;100.00;61100.13;5070634;28;19972;-67
2022/08/02 00:28:34;;;;;;;;;;;;;;;-144.99;100.00;61100.13;5070838;28;19929;-65
2022/08/02 00:31:01;;;;;;;;;;;;;;;-144.99;100.00;61100.13;5066237;28;19946;-65
2022/08/02 00:33:28;;;;;;;;;;;;;;;-144.99;100.00;61100.13;5070618;28;20339;-66
2022/08/02 00:35:55;;;;;;;;;;;;;;;-144.99;100.00;61100.13;5070701;28;20015;-67
2022/08/02 00:38:21;;;;;;;;;;;;;;;-144.99;100.00;61100.13;5070791;28;20467;-66
2022/08/02 00:40:48;;;;;;;;;;;;;;;-144.99;100.00;61100.13;5070710;28;20422;-66
2022/08/02 00:43:15;;;;;;;;;;;;;;;-144.99;100.00;61100.13;5069267;28;19935;-67
2022/08/02 00:45:41;;;;;;;;;;;;;;;-144.99;100.00;61100.13;5070533;28;19924;-65
2022/08/02 00:48:09;;;;;;;;;;;;;;;-144.99;100.00;61100.13;5071867;28;19978;-64
2022/08/02 00:50:37;;;;;;;;;;;;;;;-144.99;100.00;61100.13;5069011;28;19946;-65
2022/08/02 00:53:04;;;;;;;;;;;;;;;-144.99;100.00;61100.13;5069209;28;20186;-65
2022/08/02 00:55:30;;;;;;;;;;;;;;;-144.99;100.00;61100.13;5071405;28;19967;-61
2022/08/02 00:57:57;;;;;;;;;;;;;;;-144.99;100.00;61100.13;5071695;28;19935;-61
2022/08/02 01:00:23;;;;;;;;;;;;;;;-144.99;100.00;61100.13;5069844;28;19939;-62
2022/08/02 01:02:50;;;;;;;;;;;;;;;-144.99;100.00;61100.13;5070985;28;19936;-61
2022/08/02 01:05:17;;;;;;;;;;;;;;;-144.99;100.00;61100.13;5070345;28;19934;-61
2022/08/02 01:07:44;;;;;;;;;;;;;;;-144.99;100.00;61100.13;5070587;28;20011;-61
2022/08/02 01:10:11;;;;;;;;;;;;;;;-144.99;100.00;61100.13;5071023;28;19970;-62
2022/08/02 01:12:38;;;;;;;;;;;;;;;-144.99;100.00;61100.13;5070253;28;20008;-62
2022/08/02 01:15:06;;;;;;;;;;;;;;;-144.99;100.00;61100.13;5070256;28;19936;-61
2022/08/02 01:17:35;;;;;;;;;;;;;;;-144.99;100.00;61100.13;5070833;28;20371;-62
2022/08/02 01:20:05;;;;;;;;;;;;;;;-144.99;100.00;61100.13;5063329;28;20165;-61
2022/08/02 01:22:41;;;;;;;;;;;;;;;-144.99;100.00;61100.13;5068584;28;19932;-62
2022/08/02 01:25:13;;;;;;;;;;;;;;;-144.99;100.00;61100.13;5069110;28;20364;-60
2022/08/02 01:27:47;;;;;;;;;;;;;;;-144.99;100.00;61100.13;5069689;28;20331;-60
2022/08/02 01:30:16;;;;;;;;;;;;;;;-144.99;100.00;61100.13;5069647;28;20170;-61
2022/08/02 01:32:44;;;;;;;;;;;;;;;-144.99;100.00;61100.13;5060178;28;19924;-60
2022/08/02 01:35:13;;;;;;;;;;;;;;;-144.99;100.00;61100.13;5069411;28;19963;-60
2022/08/02 01:37:42;;;;;;;;;;;;;;;-144.99;100.00;61100.13;5068425;28;20397;-61
2022/08/02 01:40:10;;;;;;;;;;;;;;;-144.99;100.00;61100.13;5069637;28;19925;-61
2022/08/02 01:42:38;;;;;;;;;;;;;;;-144.99;100.00;61100.13;5069377;28;20014;-62
2022/08/02 01:45:06;;;;;;;;;;;;;;;-144.99;100.00;61100.13;5069504;28;20427;-62
2022/08/02 01:47:36;;;;;;;;;;;;;;;-144.99;100.00;61100.13;5068533;28;19963;-70
2022/08/02 01:50:03;;;;;;;;;;;;;;;-144.99;100.00;61100.13;5068597;28;19924;-64
2022/08/02 01:52:32;;;;;;;;;;;;;;;-144.99;100.00;61100.13;5066421;28;19935;-65
2022/08/02 01:55:01;;;;;;;;;;;;;;;-144.99;100.00;61100.13;5069472;28;20305;-64
2022/08/02 01:57:32;;;;;;;;;;;;;;;-144.99;100.00;61100.13;5068443;28;20021;-62
2022/08/02 02:00:00;;;;;;;;;;;;;;;-144.99;100.00;61100.13;5069010;28;19964;-63
2022/08/02 02:02:27;;;;;;;;;;;;;;;-144.99;100.00;61100.13;5069781;28;20372;-63
2022/08/02 02:04:55;;;;;;;;;;;;;;;-144.99;100.00;61100.13;5069345;28;19952;-62
2022/08/02 02:07:22;;;;;;;;;;;;;;;-144.99;100.00;61100.13;5068695;28;19978;-63
2022/08/02 02:09:50;;;;;;;;;;;;;;;-144.99;100.00;61100.13;5069572;28;19931;-62
2022/08/02 02:12:17;;;;;;;;;;;;;;;-144.99;100.00;61100.13;5069895;28;20015;-63
2022/08/02 02:14:44;;;;;;;;;;;;;;;-144.99;100.00;61100.13;5069943;28;19939;-62
2022/08/02 02:17:11;;;;;;;;;;;;;;;-144.99;100.00;61100.13;5068845;28;20024;-62
2022/08/02 02:19:39;;;;;;;;;;;;;;;-144.99;100.00;61100.13;5068353;28;20023;-61
2022/08/02 02:22:06;;;;;;;;;;;;;;;-144.99;100.00;61100.13;5068368;28;20005;-61
2022/08/02 02:24:33;;;;;;;;;;;;;;;-144.99;100.00;61100.13;5064754;28;20008;-61
2022/08/02 02:27:01;;;;;;;;;;;;;;;-144.99;100.00;61100.13;5064482;28;19925;-61
2022/08/02 02:29:29;;;;;;;;;;;;;;;-144.99;100.00;61100.13;5065300;28;19925;-61
2022/08/02 02:31:58;;;;;;;;;;;;;;;-144.99;100.00;61100.13;5068700;28;19924;-62
2022/08/02 02:34:26;;;;;;;;;;;;;;;-144.99;100.00;61100.13;5070207;28;19924;-61
2022/08/02 02:36:53;;;;;;;;;;;;;;;-144.99;100.00;61100.13;5068957;28;20026;-62
2022/08/02 02:39:22;;;;;;;;;;;;;;;-144.99;100.00;61100.13;5068264;28;19929;-60
2022/08/02 02:41:49;;;;;;;;;;;;;;;-144.99;100.00;61100.13;5070107;28;20023;-61
2022/08/02 02:44:18;;;;;;;;;;;;;;;-144.99;100.00;61100.13;5069694;28;19955;-63
2022/08/02 02:46:45;;;;;;;;;;;;;;;-144.99;100.00;61100.13;5068304;28;19935;-63
2022/08/02 02:49:11;;;;;;;;;;;;;;;-144.99;100.00;61100.13;5069591;28;20398;-62
2022/08/02 02:51:39;;;;;;;;;;;;;;;-144.99;100.00;61100.13;5069098;28;20031;-63
2022/08/02 02:54:06;;;;;;;;;;;;;;;-144.99;100.00;61100.13;5068984;28;19924;-60
2022/08/02 02:56:35;;;;;;;;;;;;;;;-144.99;100.00;61100.13;5064103;28;20392;-62
2022/08/02 02:59:02;;;;;;;;;;;;;;;-144.99;100.00;61100.13;5065797;28;20019;-62
2022/08/02 03:01:29;;;;;;;;;;;;;;;-144.99;100.00;61100.13;5067874;28;20027;-62
2022/08/02 03:03:57;;;;;;;;;;;;;;;-144.99;100.00;61100.13;5062238;28;20413;-62
2022/08/02 03:06:24;;;;;;;;;;;;;;;-144.99;100.00;61100.13;5066478;28;20444;-62
2022/08/02 03:08:50;;;;;;;;;;;;;;;-144.99;100.00;61100.13;5068933;28;20070;-62
2022/08/02 03:11:17;;;;;;;;;;;;;;;-144.99;100.00;61100.13;5069164;28;19932;-62
2022/08/02 03:13:45;;;;;;;;;;;;;;;-144.99;100.00;61100.13;5068392;28;20514;-63
2022/08/02 03:16:12;;;;;;;;;;;;;;;-144.99;100.00;61100.13;5069071;28;19924;-62
2022/08/02 03:18:39;;;;;;;;;;;;;;;-144.99;100.00;61100.13;5072621;28;20037;-62
2022/08/02 03:21:06;;;;;;;;;;;;;;;-144.99;100.00;61100.13;5072503;28;19935;-64
2022/08/02 03:23:33;;;;;;;;;;;;;;;-144.99;100.00;61100.13;5072662;28;20312;-64
2022/08/02 03:26:00;;;;;;;;;;;;;;;-144.99;100.00;61100.13;5071154;28;19939;-63
2022/08/02 03:28:26;;;;;;;;;;;;;;;-144.99;100.00;61100.13;5072262;28;19970;-66
2022/08/02 03:30:54;;;;;;;;;;;;;;;-144.99;100.00;61100.13;5070428;28;20411;-65
2022/08/02 03:33:22;;;;;;;;;;;;;;;-144.99;100.00;61100.13;5092365;22;19964;-68
2022/08/02 03:35:49;;;;;;;;;;;;;;;-144.99;100.00;61100.13;5090296;28;19930;-67
2022/08/02 03:38:17;;;;;;;;;;;;;;;-144.99;100.00;61100.13;5086367;28;19925;-67
2022/08/02 03:40:44;;;;;;;;;;;;;;;-144.99;100.00;61100.13;5080886;28;20015;-68
2022/08/02 03:43:11;;;;;;;;;;;;;;;-144.99;100.00;61100.13;5078805;28;19928;-69
2022/08/02 03:45:39;;;;;;;;;;;;;;;-144.99;100.00;61100.13;5079575;28;20099;-66
2022/08/02 03:48:08;;;;;;;;;;;;;;;-144.99;100.00;61100.13;5072270;28;21174;-66
2022/08/02 03:50:36;;;;;;;;;;;;;;;-144.99;100.00;61100.13;5074666;28;20354;-66
2022/08/02 03:53:03;;;;;;;;;;;;;;;-144.99;100.00;61100.13;5069822;28;19935;-66
2022/08/02 03:55:29;;;;;;;;;;;;;;;-144.99;100.00;61100.13;5074590;28;19923;-63
2022/08/02 03:57:55;;;;;;;;;;;;;;;-144.99;100.00;61100.13;5074482;28;19931;-62
2022/08/02 04:00:23;;;;;;;;;;;;;;;-144.99;100.00;61100.13;5072603;28;19924;-63
2022/08/02 04:02:49;;;;;;;;;;;;;;;-144.99;100.00;61100.13;5070349;28;19924;-62
2022/08/02 04:05:18;;;;;;;;;;;;;;;-144.99;100.00;61100.13;5080902;28;20003;-63
2022/08/02 04:07:44;;;;;;;;;;;;;;;-144.99;100.00;61100.13;5069426;28;20393;-63
2022/08/02 04:10:11;;;;;;;;;;;;;;;-144.99;100.00;61100.13;5076052;28;19938;-62
2022/08/02 04:12:37;;;;;;;;;;;;;;;-144.99;100.00;61100.13;5079087;28;19924;-63
2022/08/02 04:15:05;;;;;;;;;;;;;;;-144.99;100.00;61100.13;5082483;28;19962;-63
2022/08/02 04:17:33;;;;;;;;;;;;;;;-144.99;100.00;61100.13;5074245;28;19987;-66
2022/08/02 04:20:02;;;;;;;;;;;;;;;-144.99;100.00;61100.13;5079357;28;19931;-64
2022/08/02 04:22:31;;;;;;;;;;;;;;;-144.99;100.00;61100.13;5078356;28;19932;-64
2022/08/02 04:24:59;;;;;;;;;;;;;;;-144.99;100.00;61100.13;5070875;28;19928;-65
2022/08/02 04:27:26;;;;;;;;;;;;;;;-144.99;100.00;61100.13;5069356;28;21105;-67
2022/08/02 04:29:53;;;;;;;;;;;;;;;-144.99;100.00;61100.13;5069783;28;19925;-67
2022/08/02 04:32:20;;;;;;;;;;;;;;;-144.99;100.00;61100.13;5069679;28;19924;-65
2022/08/02 04:34:47;;;;;;;;;;;;;;;-144.99;100.00;61100.13;5077626;28;20020;-65
2022/08/02 04:37:14;;;;;;;;;;;;;;;-144.99;100.00;61100.13;5070149;28;19924;-64
2022/08/02 04:39:42;;;;;;;;;;;;;;;-144.99;100.00;61100.13;5069046;28;19964;-66
2022/08/02 04:42:09;;;;;;;;;;;;;;;-144.99;100.00;61100.13;5069671;28;20022;-68
2022/08/02 04:44:35;;;;;;;;;;;;;;;-144.99;100.00;61100.13;5070293;28;19959;-65
2022/08/02 04:47:04;;;;;;;;;;;;;;;-144.99;100.00;61100.13;5068800;28;20034;-66
2022/08/02 04:49:30;;;;;;;;;;;;;;;-144.99;100.00;61100.13;5069521;28;19932;-65
2022/08/02 04:51:57;;;;;;;;;;;;;;;-144.99;100.00;61100.13;5069414;28;20019;-64
2022/08/02 04:54:24;;;;;;;;;;;;;;;-144.99;100.00;61100.13;5069832;28;20015;-64
2022/08/02 04:56:52;;;;;;;;;;;;;;;-144.99;100.00;61100.13;5070762;28;20455;-64
2022/08/02 04:59:18;;;;;;;;;;;;;;;-144.99;100.00;61100.13;5071553;28;19924;-67
2022/08/02 05:01:45;;;;;;;;;;;;;;;-144.99;100.00;61100.13;5071986;28;20011;-66
2022/08/02 05:04:11;;;;;;;;;;;;;;;-144.99;100.00;61100.13;5083553;28;19928;-67
2022/08/02 05:06:38;;;;;;;;;;;;;;;-144.99;100.00;61100.13;5073161;28;20015;-67
2022/08/02 05:09:05;;;;;;;;;;;;;;;-144.99;100.00;61100.13;5069023;28;20320;-67
2022/08/02 05:11:31;;;;;;;;;;;;;;;-144.99;100.00;61100.13;5072573;28;19934;-66
2022/08/02 05:13:59;;;;;;;;;;;;;;;-144.99;100.00;61100.13;4371009;28;10000721;-66
2022/08/02 05:16:25;;;;;;;;;;;;;;;-144.99;100.00;61100.13;5064850;28;19967;-67
2022/08/02 05:18:52;;;;;;;;;;;;;;;-144.99;100.00;61100.13;5068856;28;19929;-66
2022/08/02 05:21:19;;;;;;;;;;;;;;;-144.99;100.00;61100.13;5077072;28;20118;-66
2022/08/02 05:23:45;;;;;;;;;;;;;;;-144.99;100.00;61100.13;5076684;28;20249;-66
2022/08/02 05:26:11;;;;;;;;;;;;;;;-144.99;100.00;61100.13;5070466;28;19933;-66
2022/08/02 05:28:38;;;;;;;;;;;;;;;-144.99;100.00;61100.13;5074055;28;19928;-66
2022/08/02 05:31:06;;;;;;;;;;;;;;;-144.99;100.00;61100.13;5070641;28;20018;-67
2022/08/02 05:33:32;;;;;;;;;;;;;;;-144.99;100.00;61100.13;5079650;28;19928;-66
2022/08/02 05:35:58;;;;;;;;;;;;;;;-144.99;100.00;61100.13;5075955;28;20466;-65
2022/08/02 05:38:27;;;;;;;;;;;;;;;-144.99;100.00;61100.13;5067017;28;20452;-65
2022/08/02 05:40:53;;;;;;;;;;;;;;;-144.99;100.00;61100.13;5070507;28;19924;-65
2022/08/02 05:43:20;;;;;;;;;;;;;;;-144.99;100.00;61100.13;5073426;28;20482;-64
2022/08/02 05:45:46;;;;;;;;;;;;;;;-144.99;100.00;61100.13;5072870;28;19929;-64
2022/08/02 05:48:14;;;;;;;;;;;;;;;-144.99;100.00;61100.13;5067039;28;20456;-64
2022/08/02 05:50:44;;;;;;;;;;;;;;;-144.99;100.00;61100.13;5072225;28;19935;-65
2022/08/02 05:53:15;;;;;;;;;;;;;;;-144.99;100.00;61100.13;5067120;28;20049;-66
2022/08/02 05:55:46;;;;;;;;;;;;;;;-144.99;100.00;61100.13;5064720;28;19932;-66
2022/08/02 05:58:14;;;;;;;;;;;;;;;-144.99;100.00;61100.13;5069620;28;20015;-72
2022/08/02 06:00:41;;;;;;;;;;;;;;;-144.99;100.00;61100.13;5067708;28;20035;-66
2022/08/02 06:03:25;;;;;;;;;;;;;;;-144.99;100.00;61100.13;5067295;28;19951;-66
2022/08/02 06:05:58;;;;;;;;;;;;;;;-144.99;100.00;61100.13;5069546;28;20428;-65
2022/08/02 06:08:27;;;;;;;;;;;;;;;-144.99;100.00;61100.13;5071901;28;20015;-66
2022/08/02 06:10:56;;;;;;;;;;;;;;;-144.99;100.00;61100.13;5073959;28;20027;-65
2022/08/02 06:13:23;;;;;;;;;;;;;;;-144.99;100.00;61100.13;5074522;28;19928;-70
2022/08/02 06:15:51;;;;;;;;;;;;;;;-144.99;100.00;61100.13;5064835;28;19935;-69
2022/08/02 06:18:17;;;;;;;;;;;;;;;-144.99;100.00;61100.13;5062321;28;19925;-70
2022/08/02 06:20:47;;;;;;;;;;;;;;;-144.99;100.00;61100.13;5065806;28;19936;-67
2022/08/02 06:23:16;;;;;;;;;;;;;;;-144.99;100.00;61100.13;5073167;28;19992;-68
2022/08/02 06:25:45;;;;;;;;;;;;;;;-144.99;100.00;61100.13;5065271;28;19950;-68
2022/08/02 06:28:13;;;;;;;;;;;;;;;-144.99;100.00;61100.13;5070909;28;20015;-66
2022/08/02 06:30:41;;;;;;;;;;;;;;;-144.99;100.00;61100.13;5065178;28;19924;-67
2022/08/02 06:33:08;;;;;;;;;;;;;;;-144.99;100.00;61100.13;5066438;28;20143;-67
2022/08/02 06:35:41;;;;;;;;;;;;;;;-144.99;100.00;61100.13;5065618;28;20446;-66
2022/08/02 06:38:07;;;;;;;;;;;;;;;-144.99;100.00;61100.13;5065675;28;20313;-67
2022/08/02 06:40:39;;;;;;;;;;;;;;;-144.99;100.00;61100.13;5061301;28;19935;-67
2022/08/02 06:43:08;;;;;;;;;;;;;;;-144.99;100.00;61100.13;5066908;28;19929;-66
2022/08/02 06:45:35;;;;;;;;;;;;;;;-144.99;100.00;61100.13;5066256;28;19928;-68
2022/08/02 06:48:01;;;;;;;;;;;;;;;-144.99;100.00;61100.13;4717874;28;10000508;-68
2022/08/02 06:50:28;;;;;;;;;;;;;;;-144.99;100.00;61100.13;5068057;28;19925;-68
2022/08/02 06:52:54;;;;;;;;;;;;;;;-144.99;100.00;61100.13;5070300;28;19936;-68
2022/08/02 06:55:21;;;;;;;;;;;;;;;-144.99;100.00;61100.13;5068688;28;19967;-67
2022/08/02 06:57:49;;;;;;;;;;;;;;;-144.99;100.00;61100.13;5069552;28;20452;-67
2022/08/02 07:00:15;;;;;;;;;;;;;;;-144.99;100.00;61100.13;5069873;28;20015;-68
2022/08/02 07:02:42;;;;;;;;;;;;;;;-144.99;100.00;61100.13;5069647;28;20043;-67
2022/08/02 07:05:09;;;;;;;;;;;;;;;-144.99;100.00;61100.13;5068722;28;19928;-68
2022/08/02 07:07:35;;;;;;;;;;;;;;;-144.99;100.00;61100.13;5070118;28;19931;-68
2022/08/02 07:10:02;;;;;;;;;;;;;;;-144.99;100.00;61100.13;5074462;28;19928;-67
2022/08/02 07:12:29;;;;;;;;;;;;;;;-144.99;100.00;61100.13;5072468;28;20361;-67
2022/08/02 07:14:56;;;;;;;;;;;;;;;-144.99;100.00;61100.13;5064598;28;20455;-67
2022/08/02 07:17:23;;;;;;;;;;;;;;;-144.99;100.00;61100.13;5070236;28;19951;-68
2022/08/02 07:19:49;;;;;;;;;;;;;;;-144.99;100.00;61100.13;5068693;28;20395;-68
2022/08/02 07:22:17;;;;;;;;;;;;;;;-144.99;100.00;61100.13;5068031;28;20399;-67
2022/08/02 07:24:44;;;;;;;;;;;;;;;-144.99;100.00;61100.13;5067253;28;19932;-67
2022/08/02 07:27:10;;;;;;;;;;;;;;;-144.99;100.00;61100.13;5068377;28;20023;-67
2022/08/02 07:29:37;;;;;;;;;;;;;;;-144.99;100.00;61100.13;5077563;28;20292;-68
2022/08/02 07:32:05;;;;;;;;;;;;;;;-144.99;100.00;61100.13;5067859;28;19932;-68
2022/08/02 07:34:31;;;;;;;;;;;;;;;-144.99;100.00;61100.13;5068486;28;20023;-67
2022/08/02 07:36:58;;;;;;;;;;;;;;;-144.99;100.00;61100.13;5064768;28;20423;-67
2022/08/02 07:39:24;;;;;;;;;;;;;;;-144.99;100.00;61100.13;5074927;28;19928;-68
2022/08/02 07:41:51;;;;;;;;;;;;;;;-144.99;100.00;61100.13;5067329;28;20409;-67
2022/08/02 07:44:18;;;;;;;;;;;;;;;-144.99;100.00;61100.13;5068099;28;20389;-67
2022/08/02 07:46:44;;;;;;;;;;;;;;;-144.99;100.00;61100.13;5072222;28;19929;-66
2022/08/02 07:49:17;;;;;;;;;;;;;;;-144.99;100.00;61100.13;5073564;28;19951;-68
2022/08/02 07:51:43;;;;;;;;;;;;;;;-144.99;100.00;61100.13;5062289;28;19933;-69
2022/08/02 07:54:10;;;;;;;;;;;;;;;-144.99;100.00;61100.13;5067362;28;19925;-68
2022/08/02 07:56:37;;;;;;;;;;;;;;;-144.99;100.00;61100.13;5066093;28;20373;-67
2022/08/02 07:59:03;;;;;;;;;;;;;;;-144.99;100.00;61100.13;5070275;28;19933;-67
2022/08/02 08:01:30;;;;;;;;;;;;;;;-144.99;100.00;61100.13;5067514;28;19979;-67
2022/08/02 08:03:56;;;;;;;;;;;;;;;-144.99;100.00;61100.13;5074752;28;20027;-67
2022/08/02 08:06:24;;;;;;;;;;;;;;;-144.99;100.00;61100.13;5066878;28;19925;-66
2022/08/02 08:08:51;;;;;;;;;;;;;;;-144.99;100.00;61100.13;5068901;28;20360;-66
2022/08/02 08:11:17;;;;;;;;;;;;;;;-144.99;100.00;61100.13;5067446;28;20034;-67
2022/08/02 08:13:44;;;;;;;;;;;;;;;-144.99;100.00;61100.13;5067032;28;20464;-67
2022/08/02 08:16:10;;;;;;;;;;;;;;;-144.99;100.00;61100.13;5066713;28;20019;-67
2022/08/02 08:18:37;;;;;;;;;;;;;;;-144.99;100.00;61100.13;5068152;28;19936;-67
2022/08/02 08:21:04;;;;;;;;;;;;;;;-144.99;100.00;61100.13;5078133;28;20364;-67
2022/08/02 08:23:33;;;;;;;;;;;;;;;-144.99;100.00;61100.13;5081645;28;19994;-67
2022/08/02 08:25:59;;;;;;;;;;;;;;;-144.99;100.00;61100.13;5063411;28;20031;-67
2022/08/02 08:28:26;;;;;;;;;;;;;;;-144.99;100.00;61100.13;5072877;28;19925;-66
2022/08/02 08:30:52;;;;;;;;;;;;;;;-144.99;100.00;61100.13;5062441;28;20023;-66
2022/08/02 08:33:19;;;;;;;;;;;;;;;-144.99;100.00;61100.13;5066664;28;19940;-67
2022/08/02 08:35:45;;;;;;;;;;;;;;;-144.99;100.00;61100.13;5077326;28;20026;-69
2022/08/02 08:38:11;;;;;;;;;;;;;;;-144.99;100.00;61100.13;5072708;28;20549;-66
2022/08/02 08:40:40;;;;;;;;;;;;;;;-144.99;100.00;61100.13;5068892;28;19970;-65
2022/08/02 08:43:07;;;;;;;;;;;;;;;-144.99;100.00;61100.13;5079319;28;20316;-68
2022/08/02 08:45:34;;;;;;;;;;;;;;;-144.99;100.00;61100.13;5067746;28;20297;-68
2022/08/02 08:48:01;;;;;;;;;;;;;;;-144.99;100.00;61100.13;5069580;28;20318;-68
2022/08/02 08:50:30;;;;;;;;;;;;;;;-144.99;100.00;61100.13;5075846;28;19938;-66
2022/08/02 08:53:01;;;;;;;;;;;;;;;-144.99;100.00;61100.13;5078407;28;20258;-69
2022/08/02 08:55:29;;;;;;;;;;;;;;;-144.99;100.00;61100.13;5069001;28;19975;-68
2022/08/02 08:57:58;;;;;;;;;;;;;;;-144.99;100.00;61100.13;5070725;28;20023;-68
2022/08/02 09:00:24;;;;;;;;;;;;;;;-144.99;100.00;61100.13;5069532;28;20490;-67
2022/08/02 09:02:51;;;;;;;;;;;;;;;-144.99;100.00;61100.13;5065882;28;19928;-67
2022/08/02 09:05:17;;;;;;;;;;;;;;;-144.99;100.00;61100.13;5064787;28;19934;-67
2022/08/02 09:07:47;;;;;;;;;;;;;;;-144.99;100.00;61100.13;5066060;28;20023;-67
2022/08/02 09:10:32;;;;;;;;;;;;;;;-144.99;100.00;61100.13;5066180;28;20150;-68
2022/08/02 09:13:07;;;;;;;;;;;;;;;-144.99;100.00;61100.13;5060411;28;20286;-67
2022/08/02 09:15:34;;;;;;;;;;;;;;;-144.99;100.00;61100.13;5060800;28;20517;-67
2022/08/02 09:18:00;;;;;;;;;;;;;;;-144.99;100.00;61100.13;5067752;28;20027;-67
2022/08/02 09:20:27;;;;;;;;;;;;;;;-144.99;100.00;61100.13;5065642;28;19932;-66
2022/08/02 09:23:05;;;;;;;;;;;;;;;-144.99;100.00;61100.13;5065678;28;20297;-67
2022/08/02 09:25:31;;;;;;;;;;;;;;;-144.99;100.00;61100.13;5065144;28;19943;-67
2022/08/02 09:27:58;;;;;;;;;;;;;;;-144.99;100.00;61100.13;5064884;28;20015;-67
2022/08/02 09:30:26;;;;;;;;;;;;;;;-144.99;100.00;61100.13;5065487;28;20454;-66
2022/08/02 09:35:35;;;;;;;;;;;;;;;-144.99;100.00;61100.13;5086538;28;20295;-67
2022/08/02 09:38:10;;;;;;;;;;;;;;;-144.99;100.00;61100.13;5088753;28;20020;-66
2022/08/02 09:40:38;;;;;;;;;;;;;;;-144.99;100.00;61100.13;5085519;28;20305;-66
2022/08/02 09:43:04;;;;;;;;;;;;;;;-144.99;100.00;61100.13;5083395;28;19925;-67
2022/08/02 09:45:33;;;;;;;;;;;;;;;-144.99;100.00;61100.13;5099781;28;20019;-67
2022/08/02 09:48:00;;;;;;;;;;;;;;;-144.99;100.00;61100.13;5079635;28;20115;-67
2022/08/02 09:50:27;;;;;;;;;;;;;;;-144.99;100.00;61100.13;5087158;28;19975;-67
2022/08/02 09:52:55;;;;;;;;;;;;;;;-144.99;100.00;61100.13;5079869;28;20434;-67
2022/08/02 09:55:21;;;;;;;;;;;;;;;-144.99;100.00;61100.13;5087203;28;19968;-66
2022/08/02 09:57:48;;;;;;;;;;;;;;;-144.99;100.00;61100.13;5086609;28;19977;-66
2022/08/02 10:00:14;;;;;;;;;;;;;;;-144.99;100.00;61100.13;5075258;28;20032;-66
2022/08/02 10:03:02;;;;;;;;;;;;;;;-144.99;100.00;61100.13;5086202;28;20088;-68
2022/08/02 10:05:30;;;;;;;;;;;;;;;-144.99;100.00;61100.13;5083931;28;20399;-67
2022/08/02 10:07:56;;;;;;;;;;;;;;;-144.99;100.00;61100.13;5086480;28;20007;-66
2022/08/02 10:10:23;;;;;;;;;;;;;;;-144.99;100.00;61100.13;5086492;28;19928;-66
2022/08/02 10:12:49;;;;;;;;;;;;;;;-144.99;100.00;61100.13;5085218;28;19924;-66
2022/08/02 10:15:16;;;;;;;;;;;;;;;-144.99;100.00;61100.13;5092307;28;19976;-66
2022/08/02 10:17:44;;;;;;;;;;;;;;;-144.99;100.00;61100.13;5098629;28;19928;-67
2022/08/02 10:20:11;;;;;;;;;;;;;;;-144.99;100.00;61100.13;5088980;28;19971;-65
2022/08/02 10:22:39;;;;;;;;;;;;;;;-144.99;100.00;61100.13;5075073;28;19924;-66
2022/08/02 10:25:06;;;;;;;;;;;;;;;-144.99;100.00;61100.13;5088506;28;20040;-66
2022/08/02 10:27:34;;;;;;;;;;;;;;;-144.99;100.00;61100.13;5087332;28;20361;-66
2022/08/02 10:30:01;;;;;;;;;;;;;;;-144.99;100.00;61100.13;5095129;28;20015;-67
2022/08/02 10:32:29;;;;;;;;;;;;;;;-144.99;100.00;61100.13;5092065;28;19928;-67
2022/08/02 10:35:00;;;;;;;;;;;;;;;-144.99;100.00;61100.13;5085756;28;20373;-67
2022/08/02 10:37:28;;;;;;;;;;;;;;;-144.99;100.00;61100.13;5095519;28;19935;-66
2022/08/02 10:39:56;;;;;;;;;;;;;;;-144.99;100.00;61100.13;5092539;28;19928;-68
2022/08/02 10:42:37;;;;;;;;;;;;;;;-144.99;100.00;61100.13;5092732;28;19928;-67
2022/08/02 10:45:08;;;;;;;;;;;;;;;-144.99;100.00;61100.13;5083329;28;19946;-67
2022/08/02 10:47:35;;;;;;;;;;;;;;;-144.99;100.00;61100.13;5089348;28;20527;-67
2022/08/02 10:50:03;;;;;;;;;;;;;;;-144.99;100.00;61100.13;5095127;28;20334;-67
2022/08/02 10:52:30;;;;;;;;;;;;;;;-144.99;100.00;61100.13;5108382;28;20423;-67
2022/08/02 10:54:57;;;;;;;;;;;;;;;-144.99;100.00;61100.13;5087692;28;20296;-66
2022/08/02 10:57:24;;;;;;;;;;;;;;;-144.99;100.00;61100.13;5089835;28;20095;-68
2022/08/02 10:59:52;;;;;;;;;;;;;;;-144.99;100.00;61100.13;5107068;28;19927;-66
2022/08/02 11:02:35;;;;;;;;;;;;;;;-144.99;100.00;61100.13;5110291;28;19928;-66
2022/08/02 11:05:04;;;;;;;;;;;;;;;-144.99;100.00;61100.13;5093318;28;19928;-66
2022/08/02 11:07:32;;;;;;;;;;;;;;;-144.99;100.00;61100.13;5095854;28;20020;-66
2022/08/02 11:09:59;;;;;;;;;;;;;;;-144.99;100.00;61100.13;5090647;28;19932;-66
2022/08/02 11:12:26;;;;;;;;;;;;;;;-144.99;100.00;61100.13;5090400;28;19943;-68
2022/08/02 11:14:59;;;;;;;;;;;;;;;-144.99;100.00;61100.13;5091689;28;20014;-67
2022/08/02 11:17:27;;;;;;;;;;;;;;;-144.99;100.00;61100.13;5090324;28;20023;-67
2022/08/02 11:20:12;;;;;;;;;;;;;;;-144.99;100.00;61100.13;5102716;28;19938;-66
2022/08/02 11:22:41;;;;;;;;;;;;;;;-144.99;100.00;61100.13;5088846;28;20432;-69
2022/08/02 11:25:26;;;;;;;;;;;;;;;-144.99;100.00;61100.13;5092625;27;20277;-69
2022/08/02 11:27:53;;;;;;;;;;;;;;;-144.99;100.00;61100.13;5102671;28;20019;-66
2022/08/02 11:30:20;;;;;;;;;;;;;;;-144.99;100.00;61100.13;5095812;28;19942;-68
2022/08/02 11:32:47;;;;;;;;;;;;;;;-144.99;100.00;61100.13;5083610;28;19928;-68
2022/08/02 11:35:13;;;;;;;;;;;;;;;-144.99;100.00;61100.13;5087855;28;19951;-67
2022/08/02 11:37:44;;;;;;;;;;;;;;;-144.99;100.00;61100.13;5099107;28;19963;-66
2022/08/02 11:40:12;;;;;;;;;;;;;;;-144.99;100.00;61100.13;5085844;28;19928;-66
2022/08/02 11:42:40;;;;;;;;;;;;;;;-144.99;100.00;61100.13;5087236;28;20063;-68
2022/08/02 11:45:07;;;;;;;;;;;;;;;-144.99;100.00;61100.13;5088220;28;19946;-67
2022/08/02 11:47:34;;;;;;;;;;;;;;;-144.99;100.00;61100.13;5088285;28;20054;-66
2022/08/02 11:50:04;;;;;;;;;;;;;;;-144.99;100.00;61100.13;5086132;28;19924;-67
2022/08/02 11:52:32;;;;;;;;;;;;;;;-144.99;100.00;61100.13;5082318;28;20400;-66
2022/08/02 11:55:00;;;;;;;;;;;;;;;-144.99;100.00;61100.13;5088557;28;19931;-66
2022/08/02 11:57:27;;;;;;;;;;;;;;;-144.99;100.00;61100.13;5088237;28;19935;-66
2022/08/02 11:59:55;;;;;;;;;;;;;;;-144.99;100.00;61100.13;5085164;28;19992;-67
2022/08/02 12:02:25;;;;;;;;;;;;;;;-144.99;100.00;61100.13;5087697;28;20030;-67
2022/08/02 12:04:52;;;;;;;;;;;;;;;-144.99;100.00;61100.13;5087943;28;20022;-66
2022/08/02 12:07:25;;;;;;;;;;;;;;;-144.99;100.00;61100.13;5084101;28;20299;-66
2022/08/02 12:09:51;;;;;;;;;;;;;;;-144.99;100.00;61100.13;5097130;28;20023;-67
2022/08/02 12:12:19;;;;;;;;;;;;;;;-144.99;100.00;61100.13;5088631;28;20459;-66
2022/08/02 12:14:45;;;;;;;;;;;;;;;-144.99;100.00;61100.13;5098992;28;20395;-66
2022/08/02 12:19:56;;;;;;;;;;;;;;;-144.99;100.00;61100.13;5098511;28;20444;-67
2022/08/02 12:22:24;;;;;;;;;;;;;;;-144.99;100.00;61100.13;5090046;28;19928;-66
2022/08/02 12:24:51;;;;;;;;;;;;;;;-144.99;100.00;61100.13;5087406;28;19924;-66
2022/08/02 12:27:33;;;;;;;;;;;;;;;-144.99;100.00;61100.13;5087330;28;20387;-66